createdAt,value
2023-01-31T00:01:17.687Z,29.70
2023-01-31T00:03:48.357Z,32.50
2023-01-31T00:06:19.907Z,25.00
2023-01-31T00:08:50.084Z,26.70
2023-01-31T00:11:20.810Z,29.50
2023-01-31T00:13:49.820Z,26.70
2023-01-31T00:16:19.712Z,28.10
2023-01-31T00:18:49.165Z,26.60
2023-01-31T00:21:29.189Z,21.80
2023-01-31T00:23:59.127Z,29.00
2023-01-31T00:26:30.107Z,23.60
2023-01-31T00:29:00.895Z,26.80
2023-01-31T00:31:31.310Z,26.90
2023-01-31T00:34:01.023Z,30.10
2023-01-31T00:36:32.538Z,27.30
2023-01-31T00:39:03.026Z,27.40
2023-01-31T00:41:32.104Z,25.90
2023-01-31T00:44:01.271Z,25.50
2023-01-31T00:46:30.410Z,24.70
2023-01-31T00:48:59.590Z,24.50
2023-01-31T00:51:28.121Z,27.20
2023-01-31T00:53:56.654Z,23.80
2023-01-31T00:56:26.201Z,24.20
2023-01-31T00:58:56.171Z,23.70
2023-01-31T01:01:27.819Z,20.50
2023-01-31T01:03:58.021Z,25.00
2023-01-31T01:06:28.375Z,30.40
2023-01-31T01:09:00.038Z,28.80
2023-01-31T01:11:33.336Z,26.60
2023-01-31T01:14:03.236Z,28.10
2023-01-31T01:16:37.921Z,28.00
2023-01-31T01:19:08.571Z,30.00
2023-01-31T01:21:41.192Z,30.80
2023-01-31T01:24:15.297Z,31.20
2023-01-31T01:26:45.032Z,28.10
2023-01-31T01:29:14.098Z,34.70
2023-01-31T01:31:42.805Z,28.10
2023-01-31T01:34:15.391Z,32.60
2023-01-31T01:36:46.793Z,27.50
2023-01-31T01:39:18.557Z,27.90
2023-01-31T01:41:48.107Z,29.90
2023-01-31T01:44:45.330Z,26.40
2023-01-31T01:47:21.599Z,25.30
2023-01-31T01:50:02.576Z,24.90
2023-01-31T01:52:34.707Z,31.10
2023-01-31T01:58:04.475Z,22.40
2023-01-31T02:00:36.096Z,27.70
2023-01-31T02:03:07.685Z,31.50
2023-01-31T02:05:42.532Z,30.80
2023-01-31T02:08:15.366Z,28.50
2023-01-31T02:10:59.445Z,25.90
2023-01-31T02:13:29.644Z,32.30
2023-01-31T02:15:58.954Z,28.70
2023-01-31T02:18:29.014Z,24.60
2023-01-31T02:21:35.392Z,31.00
2023-01-31T02:24:15.722Z,29.80
2023-01-31T02:27:13.586Z,29.50
2023-01-31T02:30:08.719Z,28.70
2023-01-31T02:33:10.045Z,33.90
2023-01-31T02:35:50.711Z,26.40
2023-01-31T02:38:38.755Z,24.30
2023-01-31T02:41:15.937Z,26.80
2023-01-31T02:44:24.902Z,27.10
2023-01-31T02:47:19.791Z,28.80
2023-01-31T02:49:57.058Z,27.50
2023-01-31T02:52:37.206Z,26.00
2023-01-31T02:55:39.996Z,25.50
2023-01-31T02:58:12.684Z,24.00
2023-01-31T03:00:45.789Z,27.50
2023-01-31T03:03:28.391Z,32.20
2023-01-31T03:06:12.271Z,24.70
2023-01-31T03:08:45.145Z,24.70
2023-01-31T03:11:14.313Z,27.80
2023-01-31T03:13:58.579Z,26.10
2023-01-31T03:17:22.133Z,24.20
2023-01-31T03:20:18.379Z,29.00
2023-01-31T03:22:51.544Z,22.30
2023-01-31T03:25:25.017Z,23.40
2023-01-31T03:27:59.782Z,24.70
2023-01-31T03:30:47.331Z,26.50
2023-01-31T03:33:27.224Z,28.50
2023-01-31T03:36:18.069Z,23.80
2023-01-31T03:38:57.094Z,22.60
2023-01-31T03:41:51.285Z,25.80
2023-01-31T03:44:53.954Z,27.40
2023-01-31T03:47:38.968Z,29.20
2023-01-31T03:50:39.262Z,25.90
2023-01-31T03:53:17.977Z,23.30
2023-01-31T03:55:55.130Z,20.30
2023-01-31T03:58:29.286Z,20.30
2023-01-31T04:01:01.754Z,17.90
2023-01-31T04:03:41.092Z,19.90
2023-01-31T04:06:12.317Z,17.90
2023-01-31T04:08:42.559Z,18.40
2023-01-31T04:11:14.763Z,19.40
2023-01-31T04:13:43.628Z,23.00
2023-01-31T04:16:12.567Z,22.50
2023-01-31T04:18:41.302Z,17.00
2023-01-31T04:21:10.661Z,19.80
2023-01-31T04:23:39.394Z,21.40
2023-01-31T04:26:08.281Z,16.40
2023-01-31T04:28:37.077Z,17.50
2023-01-31T04:31:05.901Z,14.70
2023-01-31T04:33:34.953Z,19.70
2023-01-31T04:36:04.089Z,18.10
2023-01-31T04:38:33.102Z,17.90
2023-01-31T04:41:02.249Z,17.60
2023-01-31T04:43:31.032Z,15.30
2023-01-31T04:45:59.820Z,20.10
2023-01-31T04:48:29.963Z,19.70
2023-01-31T04:50:58.644Z,19.40
2023-01-31T04:53:27.319Z,19.30
2023-01-31T04:55:56.307Z,16.60
2023-01-31T04:58:25.408Z,18.50
2023-01-31T05:00:54.629Z,15.10
2023-01-31T05:03:23.393Z,13.40
2023-01-31T05:05:52.286Z,12.60
2023-01-31T05:08:20.869Z,15.00
2023-01-31T05:10:50.171Z,13.40
2023-01-31T05:13:18.751Z,12.60
2023-01-31T05:15:49.801Z,12.10
2023-01-31T05:18:18.479Z,16.50
2023-01-31T05:20:50.303Z,12.50
2023-01-31T05:23:19.801Z,13.50
2023-01-31T05:25:50.810Z,12.30
2023-01-31T05:28:19.686Z,11.80
2023-01-31T05:30:48.607Z,12.90
2023-01-31T05:33:17.566Z,15.30
2023-01-31T05:35:46.760Z,16.40
2023-01-31T05:38:16.168Z,12.30
2023-01-31T05:40:46.175Z,12.40
2023-01-31T05:43:14.666Z,14.60
2023-01-31T05:45:43.780Z,11.30
2023-01-31T05:48:12.756Z,10.50
2023-01-31T05:50:41.217Z,15.60
2023-01-31T05:53:13.003Z,15.20
2023-01-31T05:55:41.677Z,16.50
2023-01-31T05:58:10.469Z,12.80
2023-01-31T06:00:39.057Z,16.40
2023-01-31T06:03:08.673Z,11.50
2023-01-31T06:05:37.351Z,12.80
2023-01-31T06:08:06.547Z,15.80
2023-01-31T06:10:35.136Z,14.70
2023-01-31T06:13:03.918Z,12.70
2023-01-31T06:15:33.156Z,15.00
2023-01-31T06:18:02.624Z,13.40
2023-01-31T06:20:31.205Z,15.50
2023-01-31T06:23:01.450Z,15.80
2023-01-31T06:25:30.834Z,18.30
2023-01-31T06:27:59.381Z,14.70
2023-01-31T06:30:28.232Z,14.80
2023-01-31T06:33:00.270Z,15.00
2023-01-31T06:37:57.439Z,14.30
2023-01-31T06:40:26.230Z,17.40
2023-01-31T06:42:55.313Z,13.40
2023-01-31T06:45:24.215Z,12.50
2023-01-31T06:47:53.003Z,9.30
2023-01-31T06:50:22.002Z,9.10
2023-01-31T06:52:50.479Z,9.00
2023-01-31T06:56:19.378Z,8.70
2023-01-31T06:59:48.090Z,8.10
2023-01-31T07:03:16.769Z,8.00
2023-01-31T07:05:46.590Z,10.00
2023-01-31T07:09:14.973Z,12.40
2023-01-31T07:12:43.863Z,14.70
2023-01-31T07:16:16.201Z,12.80
2023-01-31T07:19:24.769Z,25.40
2023-01-31T07:21:53.641Z,29.70
2023-01-31T07:24:22.445Z,29.50
2023-01-31T07:26:54.449Z,36.10
2023-01-31T07:29:23.501Z,32.80
2023-01-31T07:31:52.565Z,43.00
2023-01-31T07:34:23.433Z,36.70
2023-01-31T07:36:52.545Z,35.40
2023-01-31T07:39:21.015Z,29.10
2023-01-31T07:41:50.703Z,31.00
2023-01-31T07:44:19.805Z,30.80
2023-01-31T07:46:48.920Z,29.10
2023-01-31T07:49:17.511Z,29.70
2023-01-31T07:51:46.905Z,30.60
2023-01-31T07:54:15.699Z,28.30
2023-01-31T07:56:44.584Z,33.10
2023-01-31T07:59:13.753Z,29.00
2023-01-31T08:02:01.517Z,29.30
2023-01-31T08:04:30.922Z,27.10
2023-01-31T08:07:01.843Z,27.40
2023-01-31T08:09:31.101Z,28.70
2023-01-31T08:12:59.650Z,23.70
2023-01-31T08:16:33.153Z,29.80
2023-01-31T08:19:23.359Z,24.90
2023-01-31T08:21:52.035Z,27.30
2023-01-31T08:24:20.670Z,27.90
2023-01-31T08:26:49.500Z,31.40
2023-01-31T08:29:18.605Z,30.80
2023-01-31T08:31:47.355Z,29.20
2023-01-31T08:34:16.286Z,26.10
2023-01-31T08:36:46.702Z,25.80
2023-01-31T08:39:15.405Z,26.80
2023-01-31T08:41:44.200Z,27.10
2023-01-31T08:44:13.085Z,26.50
2023-01-31T08:46:42.491Z,24.50
2023-01-31T08:49:11.820Z,24.10
2023-01-31T08:51:40.371Z,26.60
2023-01-31T08:54:10.700Z,27.40
2023-01-31T08:56:39.382Z,29.30
2023-01-31T08:59:07.965Z,23.10
2023-01-31T09:01:37.088Z,23.30
2023-01-31T09:04:05.938Z,22.10
2023-01-31T09:06:34.744Z,26.40
2023-01-31T09:09:03.740Z,22.10
2023-01-31T09:11:32.525Z,23.70
2023-01-31T09:14:01.208Z,25.60
2023-01-31T09:16:30.010Z,25.50
2023-01-31T09:18:58.910Z,25.40
2023-01-31T09:21:28.021Z,26.00
2023-01-31T09:24:00.371Z,28.50
2023-01-31T09:28:59.158Z,24.10
2023-01-31T09:31:28.531Z,29.20
2023-01-31T09:33:57.303Z,26.60
2023-01-31T09:36:25.968Z,23.00
2023-01-31T09:38:57.221Z,21.60
2023-01-31T09:41:41.957Z,24.10
2023-01-31T09:44:42.498Z,25.00
2023-01-31T09:47:18.241Z,26.10
2023-01-31T09:49:52.235Z,22.50
2023-01-31T09:52:22.218Z,25.00
2023-01-31T09:54:50.859Z,26.30
2023-01-31T09:58:05.004Z,25.00
2023-01-31T10:00:48.982Z,28.00
2023-01-31T10:03:32.283Z,25.10
2023-01-31T10:06:08.964Z,27.20
2023-01-31T10:09:06.742Z,25.70
2023-01-31T10:12:35.247Z,25.30
2023-01-31T10:19:29.451Z,22.50
2023-01-31T10:22:04.459Z,23.70
2023-01-31T10:24:41.753Z,26.00
2023-01-31T10:27:19.758Z,22.90
2023-01-31T10:29:54.301Z,25.60
2023-01-31T10:32:31.528Z,24.90
2023-01-31T10:35:15.921Z,19.10
2023-01-31T10:37:50.533Z,25.80
2023-01-31T10:40:46.167Z,26.00
2023-01-31T10:43:26.666Z,27.30
2023-01-31T10:45:59.938Z,27.00
2023-01-31T10:48:30.145Z,28.60
2023-01-31T10:51:05.283Z,28.60
2023-01-31T10:54:13.334Z,27.80
2023-01-31T10:56:49.540Z,27.90
2023-01-31T10:59:24.898Z,27.40
2023-01-31T11:01:53.800Z,23.90
2023-01-31T11:04:25.653Z,29.80
2023-01-31T11:06:54.952Z,28.50
2023-01-31T11:09:27.303Z,32.10
2023-01-31T11:12:02.181Z,36.50
2023-01-31T11:14:31.727Z,45.80
2023-01-31T11:17:02.868Z,41.60
2023-01-31T11:19:44.498Z,32.40
2023-01-31T11:22:23.035Z,37.70
2023-01-31T11:24:53.023Z,42.90
2023-01-31T11:27:42.108Z,31.40
2023-01-31T11:30:28.336Z,30.60
2023-01-31T11:32:57.492Z,29.90
2023-01-31T11:35:28.027Z,34.90
2023-01-31T11:38:02.941Z,30.40
2023-01-31T11:40:36.371Z,40.90
2023-01-31T11:43:24.610Z,38.20
2023-01-31T11:46:03.967Z,35.80
2023-01-31T11:48:46.734Z,41.10
2023-01-31T11:51:31.110Z,36.40
2023-01-31T11:54:00.518Z,39.10
2023-01-31T11:56:34.724Z,41.70
2023-01-31T11:59:10.076Z,38.30
2023-01-31T12:01:47.668Z,39.30
2023-01-31T12:04:25.246Z,36.50
2023-01-31T12:07:18.937Z,39.00
2023-01-31T12:09:48.523Z,42.60
2023-01-31T12:12:31.641Z,33.90
2023-01-31T12:15:02.915Z,34.00
2023-01-31T12:17:35.594Z,26.10
2023-01-31T12:20:29.340Z,27.90
2023-01-31T12:23:06.924Z,25.70
2023-01-31T12:26:08.813Z,24.20
2023-01-31T12:28:59.750Z,22.50
2023-01-31T12:31:38.786Z,24.40
2023-01-31T12:34:50.498Z,23.10
2023-01-31T12:37:36.147Z,17.90
2023-01-31T12:40:37.296Z,21.70
2023-01-31T12:43:16.419Z,18.60
2023-01-31T12:46:01.321Z,17.80
2023-01-31T12:49:13.403Z,16.80
2023-01-31T12:51:52.581Z,20.80
2023-01-31T12:54:39.340Z,18.60
2023-01-31T12:57:37.019Z,22.80
2023-01-31T13:00:18.308Z,20.10
2023-01-31T13:03:03.842Z,21.90
2023-01-31T13:05:46.058Z,23.70
2023-01-31T13:08:25.049Z,26.60
2023-01-31T13:11:16.203Z,22.30
2023-01-31T13:13:53.805Z,22.40
2023-01-31T13:16:25.657Z,20.80
2023-01-31T13:21:29.786Z,19.40
2023-01-31T13:24:22.153Z,20.60
2023-01-31T13:29:29.152Z,20.60
2023-01-31T13:32:21.386Z,21.80
2023-01-31T13:34:57.551Z,21.90
2023-01-31T13:37:30.746Z,20.70
2023-01-31T13:40:15.793Z,20.10
2023-01-31T13:42:44.579Z,22.50
2023-01-31T13:45:24.167Z,21.80
2023-01-31T13:48:05.221Z,22.30
2023-01-31T13:50:45.171Z,22.00
2023-01-31T13:53:21.207Z,23.50
2023-01-31T13:55:51.702Z,23.50
2023-01-31T13:58:23.526Z,22.50
2023-01-31T14:01:04.804Z,18.90
2023-01-31T14:04:15.535Z,20.00
2023-01-31T14:06:56.245Z,20.00
2023-01-31T14:09:27.917Z,21.80
2023-01-31T14:11:59.246Z,23.10
2023-01-31T14:14:37.696Z,20.90
2023-01-31T14:17:11.154Z,23.70
2023-01-31T14:19:49.478Z,22.50
2023-01-31T14:22:21.431Z,24.00
2023-01-31T14:24:50.368Z,22.70
2023-01-31T14:27:43.404Z,22.50
2023-01-31T14:30:43.239Z,20.90
2023-01-31T14:33:12.200Z,20.70
2023-01-31T14:35:52.970Z,21.50
2023-01-31T14:38:45.823Z,23.20
2023-01-31T14:41:29.891Z,23.80
2023-01-31T14:44:29.360Z,27.50
2023-01-31T14:47:06.594Z,25.60
2023-01-31T14:49:52.048Z,20.90
2023-01-31T14:52:49.379Z,24.40
2023-01-31T14:55:33.094Z,23.30
2023-01-31T14:58:05.117Z,25.20
2023-01-31T15:03:17.209Z,24.00
2023-01-31T15:05:53.095Z,29.20
2023-01-31T15:08:22.075Z,26.90
2023-01-31T15:11:30.519Z,24.80
2023-01-31T15:14:39.421Z,25.00
2023-01-31T15:17:35.646Z,22.20
2023-01-31T15:20:15.403Z,25.30
2023-01-31T15:22:46.006Z,24.20
2023-01-31T15:25:43.596Z,25.80
2023-01-31T15:29:12.085Z,23.20
2023-01-31T15:32:46.821Z,26.60
2023-01-31T15:36:17.951Z,24.10
2023-01-31T15:40:04.298Z,25.20
2023-01-31T15:47:25.327Z,26.00
2023-01-31T15:50:53.819Z,28.70
2023-01-31T15:54:28.115Z,28.70
2023-01-31T15:56:57.442Z,28.70
2023-01-31T15:59:28.771Z,25.20
2023-01-31T16:02:01.778Z,26.30
2023-01-31T16:05:31.680Z,27.20
2023-01-31T16:09:01.509Z,27.30
2023-01-31T16:12:30.412Z,31.00
2023-01-31T16:15:58.594Z,27.00
2023-01-31T16:18:52.575Z,28.40
2023-01-31T16:21:33.959Z,27.50
2023-01-31T16:24:15.321Z,26.80
2023-01-31T16:27:16.901Z,29.60
2023-01-31T16:29:57.017Z,31.00
2023-01-31T16:32:31.733Z,27.60
2023-01-31T16:35:02.316Z,27.30
2023-01-31T16:37:39.635Z,29.30
2023-01-31T16:40:17.398Z,30.00
2023-01-31T16:43:44.867Z,28.30
2023-01-31T16:47:19.371Z,30.30
2023-01-31T16:49:49.814Z,27.90
2023-01-31T16:52:30.027Z,30.20
2023-01-31T16:55:02.265Z,22.80
2023-01-31T16:57:37.560Z,34.00
2023-01-31T17:00:28.731Z,28.40
2023-01-31T17:02:59.783Z,33.20
2023-01-31T17:05:39.492Z,29.90
2023-01-31T17:08:18.313Z,32.80
2023-01-31T17:10:48.949Z,30.40
2023-01-31T17:13:22.702Z,27.60
2023-01-31T17:15:51.673Z,31.00
2023-01-31T17:18:20.639Z,29.10
2023-01-31T17:20:51.180Z,30.70
2023-01-31T17:23:20.062Z,26.00
2023-01-31T17:25:48.979Z,29.50
2023-01-31T17:28:18.155Z,25.60
2023-01-31T17:30:47.338Z,28.40
2023-01-31T17:33:16.349Z,27.80
2023-01-31T17:35:47.801Z,26.40
2023-01-31T17:38:16.475Z,30.10
2023-01-31T17:40:45.178Z,28.90
2023-01-31T17:43:20.917Z,31.10
2023-01-31T17:45:49.798Z,30.60
2023-01-31T17:48:26.235Z,29.00
2023-01-31T17:50:56.100Z,33.60
2023-01-31T17:53:25.082Z,30.80
2023-01-31T17:55:54.908Z,28.30
2023-01-31T17:59:27.169Z,32.60
2023-01-31T18:03:01.566Z,38.60
2023-01-31T18:06:30.294Z,32.00
2023-01-31T18:09:02.932Z,31.50
2023-01-31T18:11:32.377Z,35.60
2023-01-31T18:14:03.968Z,34.10
2023-01-31T18:16:33.036Z,33.50
2023-01-31T18:19:01.848Z,38.20
2023-01-31T18:21:30.403Z,38.00
2023-01-31T18:24:00.310Z,36.50
2023-01-31T18:26:29.519Z,36.70
2023-01-31T18:28:59.338Z,36.00
2023-01-31T18:31:28.121Z,34.00
2023-01-31T18:33:57.085Z,33.20
2023-01-31T18:36:26.001Z,40.50
2023-01-31T18:38:54.821Z,38.10
2023-01-31T18:42:23.120Z,42.00
2023-01-31T18:45:56.681Z,41.40
2023-01-31T18:49:22.713Z,37.50
2023-01-31T18:51:51.705Z,37.40
2023-01-31T18:54:20.237Z,39.20
2023-01-31T18:56:50.204Z,41.70
2023-01-31T18:59:19.000Z,45.30
2023-01-31T19:01:47.964Z,49.10
2023-01-31T19:04:16.550Z,42.00
2023-01-31T19:07:44.857Z,44.40
2023-01-31T19:11:17.956Z,42.60
2023-01-31T19:14:48.167Z,36.60
2023-01-31T19:18:16.878Z,37.60
2023-01-31T19:21:34.819Z,39.40
2023-01-31T19:25:03.202Z,40.00
2023-01-31T19:27:32.099Z,45.20
2023-01-31T19:30:01.519Z,42.50
2023-01-31T19:32:31.529Z,41.40
2023-01-31T19:35:00.104Z,44.70
2023-01-31T19:38:17.956Z,45.00
2023-01-31T19:40:47.855Z,42.90
2023-01-31T19:43:16.332Z,42.60
2023-01-31T19:45:45.149Z,45.90
2023-01-31T19:48:13.921Z,44.90
2023-01-31T19:51:46.908Z,42.40
2023-01-31T19:55:15.412Z,47.30
2023-01-31T19:57:44.183Z,41.00
2023-01-31T20:00:13.636Z,44.20
2023-01-31T20:02:42.290Z,41.20
2023-01-31T20:05:13.858Z,39.80
2023-01-31T20:07:45.901Z,44.70
2023-01-31T20:10:15.503Z,43.10
2023-01-31T20:12:46.657Z,40.60
2023-01-31T20:15:15.441Z,40.70
2023-01-31T20:17:44.327Z,42.70
2023-01-31T20:20:13.733Z,41.70
2023-01-31T20:22:42.316Z,37.30
2023-01-31T20:25:11.612Z,36.90
2023-01-31T20:27:40.404Z,42.10
2023-01-31T20:31:09.175Z,41.40
2023-01-31T20:34:42.343Z,41.80
2023-01-31T20:37:11.414Z,37.80
2023-01-31T20:39:39.971Z,39.20
2023-01-31T20:42:10.716Z,35.60
2023-01-31T20:44:39.304Z,40.10
2023-01-31T20:47:08.195Z,42.80
2023-01-31T20:49:36.993Z,41.50
2023-01-31T20:52:05.865Z,38.80
2023-01-31T20:54:34.556Z,40.50
2023-01-31T20:57:03.656Z,39.60
2023-01-31T20:59:32.159Z,41.30
2023-01-31T21:02:01.120Z,39.80
2023-01-31T21:04:29.807Z,39.30
2023-01-31T21:06:58.596Z,40.70
2023-01-31T21:09:27.488Z,43.10
2023-01-31T21:11:56.279Z,44.20
2023-01-31T21:14:24.961Z,43.60
2023-01-31T21:16:53.695Z,42.80
2023-01-31T21:19:22.336Z,45.10
2023-01-31T21:21:51.226Z,44.20
2023-01-31T21:24:20.106Z,48.50
2023-01-31T21:26:48.957Z,38.30
2023-01-31T21:29:17.388Z,45.80
2023-01-31T21:31:46.054Z,45.90
2023-01-31T21:34:15.487Z,48.80
2023-01-31T21:36:45.812Z,41.80
2023-01-31T21:39:15.213Z,40.90
2023-01-31T21:42:03.023Z,41.70
2023-01-31T21:44:31.631Z,46.60
2023-01-31T21:47:00.518Z,44.40
2023-01-31T21:49:29.107Z,42.20
2023-01-31T21:51:57.891Z,41.50
2023-01-31T21:54:26.743Z,44.50
2023-01-31T21:56:55.467Z,43.80
2023-01-31T21:59:24.886Z,41.10
2023-01-31T22:01:53.590Z,43.10
2023-01-31T22:04:23.686Z,43.60
2023-01-31T22:06:53.713Z,49.50
2023-01-31T22:09:22.588Z,42.40
2023-01-31T22:11:53.200Z,44.90
2023-01-31T22:14:21.602Z,41.70
2023-01-31T22:16:52.020Z,43.00
2023-01-31T22:19:20.524Z,42.50
2023-01-31T22:21:48.994Z,45.50
2023-01-31T22:24:19.010Z,44.30
2023-01-31T22:26:48.059Z,45.70
2023-01-31T22:29:16.791Z,42.00
2023-01-31T22:31:45.691Z,40.80
2023-01-31T22:34:15.907Z,44.90
2023-01-31T22:36:44.489Z,38.60
2023-01-31T22:39:16.263Z,43.80
2023-01-31T22:41:45.447Z,45.80
2023-01-31T22:44:14.129Z,39.00
2023-01-31T22:46:43.474Z,44.00
2023-01-31T22:49:12.553Z,42.40
2023-01-31T22:51:41.230Z,39.90
2023-01-31T22:54:09.799Z,40.90
2023-01-31T22:56:38.590Z,42.00
2023-01-31T22:59:08.516Z,46.30
2023-01-31T23:01:38.531Z,45.60
2023-01-31T23:04:09.248Z,42.40
2023-01-31T23:06:38.762Z,40.90
2023-01-31T23:09:08.066Z,51.00
2023-01-31T23:11:36.649Z,50.30
2023-01-31T23:14:05.436Z,53.10
2023-01-31T23:16:52.832Z,54.90
2023-01-31T23:19:21.546Z,49.30
2023-01-31T23:21:50.436Z,49.80
2023-01-31T23:24:19.454Z,58.50
2023-01-31T23:26:48.119Z,57.80
2023-01-31T23:29:17.011Z,60.50
2023-01-31T23:31:46.544Z,64.60
2023-01-31T23:34:15.309Z,56.20
2023-01-31T23:36:43.810Z,59.00
2023-01-31T23:39:12.852Z,55.90
2023-01-31T23:41:41.670Z,54.70
2023-01-31T23:44:10.367Z,48.90
2023-01-31T23:46:39.251Z,61.70
2023-01-31T23:49:08.547Z,59.20
2023-01-31T23:51:37.587Z,56.10
2023-01-31T23:54:06.227Z,60.50
2023-01-31T23:56:35.120Z,51.50
2023-01-31T23:59:04.957Z,51.60
